GFA2765 OPLA-OEDF
Flight info
| Callsign | GFA2765 |
|---|---|
| Flight time | N/A |
| Altitude | 38000 |
| Route | VEREN G214 PG/N0491F400 G665 ASVIB N312 LVA N570 MIDSI A453 SOLOB M556 NARMI |
| Aircraft | B789/H-SDE1E2E3FGHIJ2J3J4J5M1RWXY/LB1D1 |
Departure
| Time | N/A |
|---|---|
| Airport | Allama Iqbal International Airport (OPLA) |
Arrival
| Time | 2026-04-26 22:34 |
|---|---|
| Airport | King Fahd International Airport (OEDF) |
| Time | Latitude | Longitude | Altitude | Speed | Heading |
|---|---|---|---|---|---|
| 2026-04-26 21:21 | 26.58067 | 57.85155 | 39863 ft | 440 kts | 268° |
| 2026-04-26 21:21 | 26.57669 | 57.78334 | 39859 ft | 439 kts | 268° |
| 2026-04-26 21:22 | 26.57267 | 57.71527 | 39857 ft | 439 kts | 268° |
| 2026-04-26 21:22 | 26.57012 | 57.64732 | 39870 ft | 436 kts | 275° |
| 2026-04-26 21:23 | 26.58368 | 57.54741 | 39847 ft | 437 kts | 280° |
| 2026-04-26 21:23 | 26.59387 | 57.48019 | 39840 ft | 438 kts | 280° |
| 2026-04-26 21:24 | 26.60394 | 57.41317 | 39831 ft | 438 kts | 280° |
| 2026-04-26 21:24 | 26.61231 | 57.35731 | 39820 ft | 438 kts | 280° |
| 2026-04-26 21:25 | 26.62398 | 57.27933 | 39810 ft | 437 kts | 279° |
| 2026-04-26 21:25 | 26.63397 | 57.21228 | 39801 ft | 437 kts | 280° |
| 2026-04-26 21:26 | 26.64391 | 57.14534 | 39795 ft | 437 kts | 279° |
| 2026-04-26 21:26 | 26.65216 | 57.08958 | 39790 ft | 437 kts | 279° |
| 2026-04-26 21:27 | 26.66366 | 57.01164 | 39790 ft | 437 kts | 279° |
| 2026-04-26 21:27 | 26.67351 | 56.94465 | 39784 ft | 437 kts | 279° |
| 2026-04-26 21:28 | 26.68170 | 56.88881 | 39785 ft | 437 kts | 279° |
| 2026-04-26 21:28 | 26.69149 | 56.82180 | 39781 ft | 437 kts | 279° |
| 2026-04-26 21:29 | 26.70126 | 56.75470 | 39781 ft | 437 kts | 279° |
| 2026-04-26 21:29 | 26.71099 | 56.68762 | 39779 ft | 437 kts | 279° |
| 2026-04-26 21:30 | 26.72063 | 56.62094 | 39779 ft | 437 kts | 279° |
| 2026-04-26 21:30 | 26.73031 | 56.55380 | 39778 ft | 437 kts | 279° |
| 2026-04-26 21:31 | 26.73993 | 56.48680 | 39777 ft | 436 kts | 279° |
| 2026-04-26 21:31 | 26.74456 | 56.41931 | 39781 ft | 437 kts | 269° |
| 2026-04-26 21:32 | 26.74222 | 56.35185 | 39773 ft | 436 kts | 270° |
| 2026-04-26 21:32 | 26.73979 | 56.28409 | 39776 ft | 435 kts | 269° |
| 2026-04-26 21:33 | 26.73735 | 56.21641 | 39775 ft | 436 kts | 269° |
| 2026-04-26 21:33 | 26.73595 | 56.14876 | 39794 ft | 433 kts | 276° |
| 2026-04-26 21:34 | 26.74312 | 56.08229 | 39779 ft | 433 kts | 278° |
| 2026-04-26 21:34 | 26.75074 | 56.01546 | 39777 ft | 433 kts | 278° |
| 2026-04-26 21:35 | 26.75842 | 55.94866 | 39778 ft | 433 kts | 278° |
| 2026-04-26 21:35 | 26.76376 | 55.88172 | 39776 ft | 433 kts | 273° |
| 2026-04-26 21:36 | 26.76580 | 55.81486 | 39777 ft | 433 kts | 273° |
| 2026-04-26 21:36 | 26.76767 | 55.74741 | 39779 ft | 434 kts | 273° |
| 2026-04-26 21:37 | 26.76956 | 55.67997 | 39780 ft | 434 kts | 273° |
| 2026-04-26 21:37 | 26.77141 | 55.61249 | 39781 ft | 434 kts | 273° |
| 2026-04-26 21:38 | 26.77321 | 55.54544 | 39791 ft | 434 kts | 273° |
| 2026-04-26 21:38 | 26.77500 | 55.47791 | 39795 ft | 434 kts | 273° |
| 2026-04-26 21:39 | 26.77675 | 55.41049 | 39798 ft | 434 kts | 273° |
| 2026-04-26 21:39 | 26.77848 | 55.34302 | 39800 ft | 433 kts | 273° |
| 2026-04-26 21:40 | 26.78016 | 55.27560 | 39803 ft | 433 kts | 273° |
| 2026-04-26 21:40 | 26.78181 | 55.20864 | 39809 ft | 433 kts | 273° |
| 2026-04-26 21:41 | 26.78343 | 55.14129 | 39815 ft | 433 kts | 273° |
| 2026-04-26 21:41 | 26.78502 | 55.07395 | 39825 ft | 433 kts | 273° |
| 2026-04-26 21:42 | 26.78657 | 55.00662 | 39830 ft | 433 kts | 272° |
| 2026-04-26 21:42 | 26.78808 | 54.93973 | 39837 ft | 433 kts | 273° |
| 2026-04-26 21:43 | 26.78948 | 54.87248 | 39844 ft | 432 kts | 273° |
| 2026-04-26 21:43 | 26.79088 | 54.80522 | 39849 ft | 432 kts | 272° |
| 2026-04-26 21:44 | 26.79223 | 54.73794 | 39850 ft | 432 kts | 272° |
| 2026-04-26 21:44 | 26.79355 | 54.67122 | 39857 ft | 431 kts | 272° |
| 2026-04-26 21:45 | 26.79484 | 54.60419 | 39860 ft | 431 kts | 272° |
| 2026-04-26 21:45 | 26.79604 | 54.53714 | 39857 ft | 431 kts | 272° |
| 2026-04-26 21:46 | 26.79721 | 54.47007 | 39866 ft | 431 kts | 272° |
| 2026-04-26 21:46 | 26.79835 | 54.40307 | 39870 ft | 430 kts | 272° |
| 2026-04-26 21:47 | 26.79945 | 54.33655 | 39863 ft | 430 kts | 272° |
| 2026-04-26 21:47 | 26.80053 | 54.26970 | 39867 ft | 429 kts | 272° |
| 2026-04-26 21:48 | 26.80157 | 54.20280 | 39872 ft | 430 kts | 272° |
| 2026-04-26 21:48 | 26.80258 | 54.13586 | 39873 ft | 430 kts | 272° |
| 2026-04-26 21:49 | 26.80356 | 54.06907 | 39874 ft | 429 kts | 272° |
| 2026-04-26 21:49 | 26.80450 | 54.00292 | 39876 ft | 429 kts | 272° |
| 2026-04-26 21:50 | 26.80541 | 53.93608 | 39874 ft | 429 kts | 272° |
| 2026-04-26 21:50 | 26.80630 | 53.86926 | 39872 ft | 430 kts | 272° |
| 2026-04-26 21:51 | 26.80716 | 53.80238 | 39872 ft | 429 kts | 272° |
| 2026-04-26 21:51 | 26.80797 | 53.73602 | 39868 ft | 429 kts | 272° |
| 2026-04-26 21:52 | 26.80876 | 53.66921 | 39869 ft | 429 kts | 272° |
| 2026-04-26 21:52 | 26.80953 | 53.60247 | 39865 ft | 429 kts | 272° |
| 2026-04-26 21:53 | 26.81025 | 53.53567 | 39857 ft | 429 kts | 272° |
| 2026-04-26 21:53 | 26.81095 | 53.46935 | 39854 ft | 429 kts | 272° |
| 2026-04-26 21:54 | 26.81161 | 53.40254 | 39855 ft | 430 kts | 271° |
| 2026-04-26 21:54 | 26.81870 | 53.33641 | 39865 ft | 429 kts | 284° |
| 2026-04-26 21:55 | 26.83721 | 53.27265 | 39854 ft | 430 kts | 287° |
| 2026-04-26 21:55 | 26.85625 | 53.20919 | 39852 ft | 430 kts | 287° |
| 2026-04-26 21:56 | 26.87523 | 53.14618 | 39853 ft | 429 kts | 287° |
| 2026-04-26 21:56 | 26.89422 | 53.08279 | 39853 ft | 429 kts | 287° |
| 2026-04-26 21:57 | 26.91322 | 53.01937 | 39856 ft | 430 kts | 287° |
| 2026-04-26 21:57 | 26.93211 | 52.95615 | 39857 ft | 431 kts | 287° |
| 2026-04-26 21:58 | 26.95113 | 52.89242 | 39858 ft | 431 kts | 287° |
| 2026-04-26 21:58 | 26.97009 | 52.82874 | 39855 ft | 431 kts | 287° |
| 2026-04-26 21:59 | 26.98903 | 52.76502 | 39864 ft | 430 kts | 287° |
| 2026-04-26 21:59 | 27.00777 | 52.70183 | 39862 ft | 430 kts | 287° |
| 2026-04-26 22:00 | 27.02662 | 52.63818 | 39859 ft | 430 kts | 287° |
| 2026-04-26 22:00 | 27.04543 | 52.57455 | 39865 ft | 429 kts | 287° |
| 2026-04-26 22:01 | 27.06418 | 52.51099 | 39864 ft | 429 kts | 286° |
| 2026-04-26 22:01 | 27.08291 | 52.44742 | 39868 ft | 429 kts | 286° |
| 2026-04-26 22:02 | 27.10146 | 52.38429 | 39868 ft | 428 kts | 286° |
| 2026-04-26 22:02 | 27.12007 | 52.32088 | 39865 ft | 428 kts | 286° |
| 2026-04-26 22:03 | 27.13578 | 52.25672 | 39872 ft | 426 kts | 277° |
| 2026-04-26 22:03 | 27.13714 | 52.19050 | 39876 ft | 427 kts | 264° |
| 2026-04-26 22:04 | 27.12303 | 52.12603 | 39875 ft | 433 kts | 251° |
| 2026-04-26 22:04 | 27.09349 | 52.06661 | 39876 ft | 442 kts | 238° |
| 2026-04-26 22:05 | 27.04960 | 52.01724 | 39879 ft | 455 kts | 223° |
| 2026-04-26 22:05 | 26.99329 | 51.98248 | 39878 ft | 473 kts | 207° |
| 2026-04-26 22:06 | 26.92899 | 51.96450 | 39869 ft | 482 kts | 200° |
| 2026-04-26 22:06 | 26.86313 | 51.94970 | 39868 ft | 483 kts | 200° |
| 2026-04-26 22:07 | 26.79731 | 51.93476 | 39868 ft | 483 kts | 200° |
| 2026-04-26 22:07 | 26.73260 | 51.91671 | 39883 ft | 472 kts | 210° |
| 2026-04-26 22:08 | 26.67666 | 51.88236 | 39878 ft | 455 kts | 225° |
| 2026-04-26 22:08 | 26.63176 | 51.83412 | 39875 ft | 446 kts | 233° |
| 2026-04-26 22:09 | 26.58965 | 51.78295 | 39870 ft | 447 kts | 234° |
| 2026-04-26 22:09 | 26.54775 | 51.73167 | 39876 ft | 447 kts | 234° |
| 2026-04-26 22:10 | 26.50566 | 51.68055 | 39880 ft | 447 kts | 234° |
| 2026-04-26 22:10 | 26.46407 | 51.62954 | 39879 ft | 445 kts | 238° |
| 2026-04-26 22:11 | 26.43189 | 51.57198 | 39885 ft | 434 kts | 251° |
| 2026-04-26 22:11 | 26.41449 | 51.50814 | 39890 ft | 428 kts | 264° |
| 2026-04-26 22:12 | 26.41237 | 51.44214 | 39887 ft | 426 kts | 277° |
| 2026-04-26 22:12 | 26.42516 | 51.37826 | 39670 ft | 424 kts | 288° |
| 2026-04-26 22:13 | 26.43497 | 51.34729 | 38969 ft | 420 kts | 288° |
| 2026-04-26 22:13 | 26.44483 | 51.31667 | 38310 ft | 419 kts | 288° |
| 2026-04-26 22:13 | 26.45466 | 51.28615 | 37664 ft | 417 kts | 288° |
| 2026-04-26 22:13 | 26.46434 | 51.25576 | 37019 ft | 415 kts | 288° |
| 2026-04-26 22:14 | 26.47397 | 51.22547 | 36363 ft | 413 kts | 288° |
| 2026-04-26 22:14 | 26.48360 | 51.19526 | 35689 ft | 413 kts | 288° |
| 2026-04-26 22:14 | 26.49324 | 51.16508 | 35006 ft | 413 kts | 288° |
| 2026-04-26 22:14 | 26.50274 | 51.13524 | 34305 ft | 414 kts | 288° |
| 2026-04-26 22:15 | 26.51238 | 51.10491 | 33516 ft | 415 kts | 287° |
| 2026-04-26 22:15 | 26.52152 | 51.07436 | 32767 ft | 415 kts | 283° |
| 2026-04-26 22:15 | 26.52740 | 51.04262 | 31981 ft | 421 kts | 276° |
| 2026-04-26 22:15 | 26.52964 | 51.00969 | 31155 ft | 429 kts | 270° |
| 2026-04-26 22:16 | 26.52799 | 50.97627 | 30284 ft | 434 kts | 263° |
| 2026-04-26 22:16 | 26.52227 | 50.94295 | 29334 ft | 438 kts | 256° |
| 2026-04-26 22:16 | 26.51268 | 50.91088 | 28443 ft | 436 kts | 249° |
| 2026-04-26 22:16 | 26.49937 | 50.88057 | 27583 ft | 435 kts | 242° |
| 2026-04-26 22:17 | 26.48283 | 50.85289 | 26745 ft | 435 kts | 235° |
| 2026-04-26 22:17 | 26.46299 | 50.82768 | 25918 ft | 428 kts | 228° |
| 2026-04-26 22:17 | 26.44083 | 50.80607 | 25125 ft | 420 kts | 221° |
| 2026-04-26 22:17 | 26.41767 | 50.78693 | 24354 ft | 409 kts | 221° |
| 2026-04-26 22:18 | 26.39512 | 50.76815 | 23610 ft | 399 kts | 221° |
| 2026-04-26 22:18 | 26.37307 | 50.74991 | 22844 ft | 389 kts | 221° |
| 2026-04-26 22:18 | 26.35162 | 50.73227 | 22142 ft | 378 kts | 221° |
| 2026-04-26 22:18 | 26.33079 | 50.71512 | 21471 ft | 367 kts | 221° |
| 2026-04-26 22:19 | 26.31103 | 50.69829 | 20832 ft | 355 kts | 226° |
| 2026-04-26 22:19 | 26.29436 | 50.67876 | 20181 ft | 342 kts | 236° |
| 2026-04-26 22:19 | 26.28174 | 50.65683 | 19559 ft | 332 kts | 245° |
| 2026-04-26 22:19 | 26.27318 | 50.63334 | 18943 ft | 323 kts | 255° |
| 2026-04-26 22:20 | 26.26864 | 50.60898 | 18350 ft | 322 kts | 264° |
| 2026-04-26 22:20 | 26.26808 | 50.58399 | 17721 ft | 323 kts | 273° |
| 2026-04-26 22:20 | 26.27093 | 50.55922 | 17120 ft | 322 kts | 277° |
| 2026-04-26 22:20 | 26.27403 | 50.53448 | 16529 ft | 321 kts | 277° |
| 2026-04-26 22:21 | 26.27712 | 50.51027 | 15942 ft | 320 kts | 277° |
| 2026-04-26 22:21 | 26.28032 | 50.48573 | 15365 ft | 319 kts | 277° |
| 2026-04-26 22:21 | 26.28349 | 50.46128 | 14784 ft | 319 kts | 277° |
| 2026-04-26 22:21 | 26.28661 | 50.43699 | 14329 ft | 314 kts | 277° |
| 2026-04-26 22:22 | 26.28969 | 50.41295 | 13778 ft | 313 kts | 277° |
| 2026-04-26 22:22 | 26.29277 | 50.38898 | 13181 ft | 312 kts | 277° |
| 2026-04-26 22:22 | 26.29583 | 50.36515 | 12616 ft | 309 kts | 277° |
| 2026-04-26 22:22 | 26.29886 | 50.34152 | 12070 ft | 307 kts | 277° |
| 2026-04-26 22:23 | 26.30029 | 50.31815 | 11680 ft | 296 kts | 268° |
| 2026-04-26 22:23 | 26.29926 | 50.29548 | 10900 ft | 294 kts | 268° |
| 2026-04-26 22:23 | 26.29814 | 50.27315 | 10142 ft | 282 kts | 268° |
| 2026-04-26 22:23 | 26.29710 | 50.25183 | 9396 ft | 269 kts | 268° |
| 2026-04-26 22:24 | 26.29616 | 50.23128 | 8736 ft | 262 kts | 268° |
| 2026-04-26 22:24 | 26.29522 | 50.21081 | 8368 ft | 266 kts | 268° |
| 2026-04-26 22:24 | 26.29426 | 50.19038 | 8047 ft | 263 kts | 268° |
| 2026-04-26 22:24 | 26.29330 | 50.17005 | 7738 ft | 262 kts | 268° |
| 2026-04-26 22:25 | 26.29234 | 50.14981 | 7428 ft | 260 kts | 268° |
| 2026-04-26 22:25 | 26.29142 | 50.13061 | 7131 ft | 241 kts | 267° |
| 2026-04-26 22:25 | 26.29057 | 50.11262 | 6887 ft | 227 kts | 267° |
| 2026-04-26 22:25 | 26.28974 | 50.09533 | 6623 ft | 220 kts | 268° |
| 2026-04-26 22:26 | 26.28894 | 50.07843 | 6363 ft | 217 kts | 267° |
| 2026-04-26 22:26 | 26.28813 | 50.06168 | 6104 ft | 216 kts | 267° |
| 2026-04-26 22:26 | 26.28733 | 50.04499 | 5852 ft | 216 kts | 267° |
| 2026-04-26 22:26 | 26.28651 | 50.02849 | 5611 ft | 207 kts | 267° |
| 2026-04-26 22:27 | 26.28573 | 50.01319 | 5371 ft | 196 kts | 267° |
| 2026-04-26 22:27 | 26.28497 | 49.99796 | 5141 ft | 198 kts | 267° |
| 2026-04-26 22:27 | 26.28420 | 49.98270 | 4941 ft | 197 kts | 267° |
| 2026-04-26 22:27 | 26.28343 | 49.96745 | 4720 ft | 197 kts | 267° |
| 2026-04-26 22:28 | 26.28267 | 49.95219 | 4488 ft | 198 kts | 267° |
| 2026-04-26 22:28 | 26.28189 | 49.93686 | 4270 ft | 198 kts | 267° |
| 2026-04-26 22:28 | 26.28111 | 49.92154 | 4047 ft | 198 kts | 267° |
| 2026-04-26 22:28 | 26.28034 | 49.90623 | 3839 ft | 198 kts | 267° |
| 2026-04-26 22:29 | 26.27957 | 49.89115 | 3614 ft | 198 kts | 267° |
| 2026-04-26 22:29 | 26.28136 | 49.87635 | 3461 ft | 195 kts | 298° |
| 2026-04-26 22:29 | 26.29106 | 49.86575 | 3341 ft | 200 kts | 326° |
| 2026-04-26 22:29 | 26.30376 | 49.85978 | 3096 ft | 197 kts | 343° |
| 2026-04-26 22:30 | 26.31707 | 49.85620 | 2850 ft | 195 kts | 347° |
| 2026-04-26 22:30 | 26.32977 | 49.85269 | 2595 ft | 179 kts | 346° |
| 2026-04-26 22:30 | 26.34108 | 49.84919 | 2356 ft | 161 kts | 345° |
| 2026-04-26 22:30 | 26.35172 | 49.84590 | 2142 ft | 157 kts | 345° |
| 2026-04-26 22:31 | 26.36202 | 49.84273 | 1941 ft | 155 kts | 346° |
| 2026-04-26 22:31 | 26.37246 | 49.83951 | 1738 ft | 155 kts | 346° |
| 2026-04-26 22:31 | 26.38274 | 49.83634 | 1540 ft | 154 kts | 346° |
| 2026-04-26 22:31 | 26.39307 | 49.83319 | 1328 ft | 152 kts | 346° |
| 2026-04-26 22:32 | 26.40327 | 49.83002 | 1127 ft | 153 kts | 345° |
| 2026-04-26 22:32 | 26.41341 | 49.82690 | 938 ft | 151 kts | 345° |
| 2026-04-26 22:32 | 26.42363 | 49.82377 | 737 ft | 153 kts | 345° |
| 2026-04-26 22:32 | 26.43381 | 49.82059 | 522 ft | 150 kts | 345° |
| 2026-04-26 22:33 | 26.44381 | 49.81746 | 325 ft | 151 kts | 343° |
| 2026-04-26 22:33 | 26.46307 | 49.81158 | 89 ft | 120 kts | 342° |
| 2026-04-26 22:33 | 26.46947 | 49.80964 | 86 ft | 74 kts | 345° |
| 2026-04-26 22:34 | 26.47312 | 49.80852 | 85 ft | 41 kts | 345° |
| 2026-04-26 22:34 | 26.47569 | 49.80753 | 82 ft | 37 kts | 327° |
| 2026-04-26 22:34 | 26.47754 | 49.80561 | 84 ft | 36 kts | 315° |
| 2026-04-26 22:34 | 26.47839 | 49.80340 | 81 ft | 31 kts | 251° |
| 2026-04-26 22:35 | 26.47775 | 49.80114 | 83 ft | 31 kts | 255° |
| 2026-04-26 22:35 | 26.47720 | 49.79884 | 72 ft | 31 kts | 255° |
| 2026-04-26 22:35 | 26.47663 | 49.79649 | 74 ft | 31 kts | 253° |
| 2026-04-26 22:35 | 26.47605 | 49.79442 | 66 ft | 25 kts | 253° |
| 2026-04-26 22:36 | 26.47559 | 49.79248 | 62 ft | 26 kts | 256° |
| 2026-04-26 22:36 | 26.47479 | 49.79121 | 62 ft | 17 kts | 186° |
| 2026-04-26 22:36 | 26.47383 | 49.79142 | 64 ft | 13 kts | 159° |
| 2026-04-26 22:36 | 26.47325 | 49.79171 | 61 ft | 9 kts | 159° |
| 2026-04-26 22:37 | 26.47265 | 49.79200 | 62 ft | 10 kts | 156° |
| 2026-04-26 22:37 | 26.47192 | 49.79238 | 66 ft | 13 kts | 154° |
| 2026-04-26 22:37 | 26.47128 | 49.79275 | 63 ft | 6 kts | 138° |
| 2026-04-26 22:37 | 26.47123 | 49.79291 | 64 ft | 1 kts | 95° |
| 2026-04-26 22:38 | 26.47124 | 49.79303 | 71 ft | 2 kts | 78° |
| 2026-04-26 22:38 | 26.47132 | 49.79325 | 64 ft | 4 kts | 63° |
| 2026-04-26 22:38 | 26.47142 | 49.79345 | 68 ft | 3 kts | 62° |
| 2026-04-26 22:38 | 26.47153 | 49.79368 | 64 ft | 0 kts | 62° |